createdAt,value
2022-08-14T00:02:01.670Z,54.80
2022-08-14T00:04:36.029Z,54.80
2022-08-14T00:07:10.583Z,55.00
2022-08-14T00:09:56.281Z,55.00
2022-08-14T00:12:33.417Z,55.00
2022-08-14T00:15:11.896Z,55.30
2022-08-14T00:17:47.587Z,55.30
2022-08-14T00:20:23.471Z,55.60
2022-08-14T00:22:56.496Z,55.40
2022-08-14T00:25:41.742Z,55.60
2022-08-14T00:28:15.567Z,55.50
2022-08-14T00:30:47.335Z,55.60
2022-08-14T00:33:16.908Z,55.80
2022-08-14T00:36:35.224Z,56.00
2022-08-14T00:38:34.774Z,55.90
2022-08-14T00:41:03.710Z,55.90
2022-08-14T00:43:32.507Z,56.10
2022-08-14T00:46:05.330Z,56.10
2022-08-14T00:48:38.409Z,56.60
2022-08-14T00:51:08.715Z,56.40
2022-08-14T00:53:38.981Z,56.30
2022-08-14T00:56:15.566Z,56.40
2022-08-14T00:58:45.231Z,56.50
2022-08-14T01:01:14.542Z,56.50
2022-08-14T01:03:49.734Z,56.60
2022-08-14T01:06:21.898Z,56.70
2022-08-14T01:08:59.331Z,56.70
2022-08-14T01:11:35.390Z,56.60
2022-08-14T01:14:26.005Z,56.80
2022-08-14T01:16:53.035Z,56.90
2022-08-14T01:19:41.320Z,57.10
2022-08-14T01:22:12.739Z,57.00
2022-08-14T01:24:43.458Z,57.10
2022-08-14T01:27:17.425Z,57.10
2022-08-14T01:29:59.182Z,57.20
2022-08-14T01:32:37.730Z,57.40
2022-08-14T01:35:20.627Z,57.20
2022-08-14T01:38:01.002Z,57.40
2022-08-14T01:40:36.750Z,57.40
2022-08-14T01:43:15.556Z,57.50
2022-08-14T01:45:48.805Z,57.60
2022-08-14T01:48:25.697Z,57.60
2022-08-14T01:50:53.533Z,57.80
2022-08-14T01:53:22.916Z,57.80
2022-08-14T01:55:52.077Z,57.70
2022-08-14T01:58:28.897Z,57.80
2022-08-14T02:00:58.738Z,57.90
2022-08-14T02:03:30.972Z,58.70
2022-08-14T02:05:59.563Z,58.20
2022-08-14T02:08:35.282Z,58.10
2022-08-14T02:11:22.238Z,58.20
2022-08-14T02:13:53.109Z,58.20
2022-08-14T02:16:25.363Z,58.30
2022-08-14T02:18:55.882Z,58.30
2022-08-14T02:21:23.821Z,58.40
2022-08-14T02:23:54.666Z,58.50
2022-08-14T02:26:29.258Z,59.10
2022-08-14T02:29:00.913Z,58.60
2022-08-14T02:31:42.041Z,58.70
2022-08-14T02:34:22.032Z,58.70
2022-08-14T02:37:04.089Z,58.80
2022-08-14T02:39:37.092Z,58.90
2022-08-14T02:42:06.454Z,58.90
2022-08-14T02:44:41.878Z,59.00
2022-08-14T02:47:14.816Z,59.10
2022-08-14T02:49:50.649Z,59.00
2022-08-14T02:52:56.263Z,59.10
2022-08-14T02:55:19.674Z,59.80
2022-08-14T02:57:58.229Z,59.30
2022-08-14T03:00:35.261Z,59.40
2022-08-14T03:03:07.982Z,59.50
2022-08-14T03:05:41.268Z,59.40
2022-08-14T03:08:11.878Z,59.50
2022-08-14T03:10:49.019Z,59.50
2022-08-14T03:13:19.737Z,59.60
2022-08-14T03:15:55.774Z,59.80
2022-08-14T03:18:31.563Z,59.70
2022-08-14T03:21:03.940Z,59.80
2022-08-14T03:23:38.265Z,59.90
2022-08-14T03:26:12.889Z,59.90
2022-08-14T03:28:48.158Z,60.00
2022-08-14T03:31:16.617Z,60.00
2022-08-14T03:33:44.968Z,60.20
2022-08-14T03:37:52.042Z,60.20
2022-08-14T03:39:21.689Z,60.30
2022-08-14T03:41:54.394Z,60.20
2022-08-14T03:45:25.532Z,60.40
2022-08-14T03:47:12.051Z,60.50
2022-08-14T03:49:41.937Z,60.60
2022-08-14T03:52:37.690Z,60.60
2022-08-14T03:54:59.638Z,60.70
2022-08-14T03:57:32.618Z,60.80
2022-08-14T04:00:02.972Z,60.70
2022-08-14T04:02:32.492Z,60.80
2022-08-14T04:05:11.624Z,60.90
2022-08-14T04:07:49.658Z,60.90
2022-08-14T04:10:32.120Z,61.00
2022-08-14T04:13:03.227Z,61.20
2022-08-14T04:15:55.892Z,61.00
2022-08-14T04:18:20.824Z,61.20
2022-08-14T04:20:54.207Z,61.20
2022-08-14T04:23:29.385Z,61.40
2022-08-14T04:26:03.363Z,61.40
2022-08-14T04:29:05.332Z,61.60
2022-08-14T04:32:58.814Z,61.60
2022-08-14T04:34:16.915Z,62.10
2022-08-14T04:37:11.520Z,61.90
2022-08-14T04:39:57.832Z,62.10
2022-08-14T04:42:47.545Z,62.10
2022-08-14T04:45:23.192Z,62.30
2022-08-14T04:48:10.014Z,62.30
2022-08-14T04:50:44.651Z,62.40
2022-08-14T04:53:14.915Z,62.70
2022-08-14T04:55:45.973Z,62.60
2022-08-14T04:58:21.238Z,62.70
2022-08-14T05:00:52.400Z,62.80
2022-08-14T05:03:21.339Z,62.90
2022-08-14T05:05:54.946Z,62.90
2022-08-14T05:08:32.430Z,62.90
2022-08-14T05:11:13.418Z,63.10
2022-08-14T05:16:33.032Z,63.30
2022-08-14T05:19:24.986Z,63.50
2022-08-14T05:21:59.350Z,63.50
2022-08-14T05:24:29.609Z,63.50
2022-08-14T05:26:57.434Z,63.60
2022-08-14T05:29:28.284Z,63.60
2022-08-14T05:31:58.409Z,63.50
2022-08-14T05:34:32.018Z,63.70
2022-08-14T05:37:02.442Z,63.70
2022-08-14T05:39:31.863Z,63.70
2022-08-14T05:42:00.621Z,63.70
2022-08-14T05:44:30.870Z,63.80
2022-08-14T05:47:00.278Z,63.80
2022-08-14T05:49:33.111Z,63.80
2022-08-14T05:52:02.306Z,63.90
2022-08-14T05:54:35.354Z,63.80
2022-08-14T05:57:04.380Z,63.90
2022-08-14T05:59:39.301Z,63.90
2022-08-14T06:02:11.155Z,64.10
2022-08-14T06:04:39.304Z,63.90
2022-08-14T06:07:07.579Z,64.10
2022-08-14T06:09:40.377Z,63.90
2022-08-14T06:12:09.682Z,64.90
2022-08-14T06:14:37.733Z,63.70
2022-08-14T06:17:06.848Z,63.80
2022-08-14T06:19:35.994Z,64.00
2022-08-14T06:22:04.330Z,63.90
2022-08-14T06:24:34.975Z,63.60
2022-08-14T06:27:05.885Z,63.50
2022-08-14T06:29:35.312Z,63.40
2022-08-14T06:32:38.283Z,63.10
2022-08-14T06:35:11.335Z,62.90
2022-08-14T06:37:43.098Z,62.80
2022-08-14T06:40:25.722Z,62.80
2022-08-14T06:42:56.077Z,62.80
2022-08-14T06:45:26.083Z,62.90
2022-08-14T06:47:55.299Z,62.60
2022-08-14T06:50:30.186Z,62.70
2022-08-14T06:52:58.472Z,62.70
2022-08-14T06:55:28.331Z,62.80
2022-08-14T06:57:58.133Z,62.50
2022-08-14T07:00:30.495Z,62.50
2022-08-14T07:03:17.343Z,62.50
2022-08-14T07:05:57.896Z,62.40
2022-08-14T07:08:31.601Z,62.70
2022-08-14T07:11:03.892Z,62.40
2022-08-14T07:13:31.842Z,62.40
2022-08-14T07:16:05.481Z,62.40
2022-08-14T07:18:35.793Z,62.50
2022-08-14T07:21:08.184Z,62.20
2022-08-14T07:23:40.258Z,62.20
2022-08-14T07:26:13.481Z,62.10
2022-08-14T07:28:43.192Z,62.10
2022-08-14T07:31:17.068Z,62.00
2022-08-14T07:33:50.074Z,62.00
2022-08-14T07:36:26.984Z,62.40
2022-08-14T07:38:58.674Z,62.10
2022-08-14T07:41:31.351Z,62.00
2022-08-14T07:44:29.743Z,62.00
2022-08-14T07:46:50.117Z,61.90
2022-08-14T07:49:18.465Z,61.90
2022-08-14T07:51:49.378Z,61.80
2022-08-14T07:54:23.681Z,61.80
2022-08-14T07:57:00.004Z,61.80
2022-08-14T07:59:41.540Z,61.70
2022-08-14T08:02:17.268Z,61.80
2022-08-14T08:04:54.106Z,61.70
2022-08-14T08:07:29.403Z,61.70
2022-08-14T08:09:59.683Z,61.60
2022-08-14T08:12:30.982Z,61.60
2022-08-14T08:15:05.616Z,61.80
2022-08-14T08:17:39.134Z,61.70
2022-08-14T08:20:19.989Z,61.50
2022-08-14T08:22:55.876Z,61.20
2022-08-14T08:25:24.639Z,61.10
2022-08-14T08:28:00.500Z,60.90
2022-08-14T08:30:37.852Z,60.70
2022-08-14T08:33:17.314Z,60.60
2022-08-14T08:35:50.446Z,60.50
2022-08-14T08:39:14.856Z,60.40
2022-08-14T08:41:11.792Z,60.30
2022-08-14T08:43:46.247Z,60.20
2022-08-14T08:46:23.472Z,60.00
2022-08-14T08:51:25.021Z,59.90
2022-08-14T08:54:01.940Z,59.70
2022-08-14T08:56:42.263Z,59.60
2022-08-14T08:59:21.602Z,59.60
2022-08-14T09:01:56.203Z,59.40
2022-08-14T09:04:25.377Z,59.20
2022-08-14T09:07:09.408Z,59.20
2022-08-14T09:09:54.347Z,59.10
2022-08-14T09:12:46.648Z,59.00
2022-08-14T09:15:16.963Z,58.90
2022-08-14T09:17:46.255Z,58.70
2022-08-14T09:20:14.184Z,58.70
2022-08-14T09:22:55.797Z,58.60
2022-08-14T09:26:00.184Z,58.50
2022-08-14T09:28:13.836Z,58.50
2022-08-14T09:30:45.751Z,58.30
2022-08-14T09:33:55.885Z,58.10
2022-08-14T09:36:49.770Z,58.00
2022-08-14T09:39:28.540Z,57.90
2022-08-14T09:42:21.435Z,57.70
2022-08-14T09:45:15.000Z,57.50
2022-08-14T09:47:49.141Z,57.40
2022-08-14T09:50:26.756Z,57.20
2022-08-14T09:52:58.292Z,57.00
2022-08-14T09:55:28.124Z,56.90
2022-08-14T09:58:09.934Z,57.00
2022-08-14T10:00:48.905Z,56.90
2022-08-14T10:03:30.156Z,56.70
2022-08-14T10:06:09.455Z,56.60
2022-08-14T10:08:50.635Z,56.40
2022-08-14T10:11:23.614Z,56.30
2022-08-14T10:13:56.003Z,56.20
2022-08-14T10:16:27.206Z,56.10
2022-08-14T10:19:07.230Z,56.10
2022-08-14T10:21:38.694Z,56.00
2022-08-14T10:24:36.528Z,55.90
2022-08-14T10:27:05.575Z,55.70
2022-08-14T10:29:37.417Z,55.60
2022-08-14T10:32:17.807Z,55.50
2022-08-14T10:35:06.733Z,55.50
2022-08-14T10:37:45.614Z,55.30
2022-08-14T10:40:43.475Z,55.00
2022-08-14T10:43:18.964Z,55.10
2022-08-14T10:49:00.140Z,54.90
2022-08-14T10:51:29.946Z,54.80
2022-08-14T10:54:01.794Z,54.40
2022-08-14T10:56:45.530Z,54.30
2022-08-14T10:59:13.872Z,54.20
2022-08-14T11:01:43.280Z,54.20
2022-08-14T11:04:27.557Z,54.10
2022-08-14T11:06:56.829Z,54.00
2022-08-14T11:09:26.358Z,53.90
2022-08-14T11:12:34.224Z,53.60
2022-08-14T11:14:59.137Z,53.50
2022-08-14T11:17:31.737Z,53.50
2022-08-14T11:20:04.342Z,53.80
2022-08-14T11:22:55.500Z,53.50
2022-08-14T11:25:23.430Z,53.40
2022-08-14T11:27:53.332Z,53.60
2022-08-14T11:30:50.313Z,53.60
2022-08-14T11:33:16.380Z,53.70
2022-08-14T11:35:49.508Z,53.00
2022-08-14T11:38:20.082Z,53.50
2022-08-14T11:40:48.631Z,53.60
2022-08-14T11:43:17.666Z,53.60
2022-08-14T11:45:49.452Z,53.80
2022-08-14T11:49:03.551Z,53.80
2022-08-14T11:51:14.818Z,54.80
2022-08-14T11:53:50.856Z,54.40
2022-08-14T11:56:19.512Z,54.30
2022-08-14T11:58:55.235Z,54.20
2022-08-14T12:01:28.702Z,54.00
2022-08-14T12:04:31.825Z,54.00
2022-08-14T12:06:57.358Z,54.30
2022-08-14T12:09:32.100Z,54.20
2022-08-14T12:12:00.422Z,54.10
2022-08-14T12:14:35.666Z,54.00
2022-08-14T12:17:12.238Z,54.10
2022-08-14T12:19:51.245Z,54.20
2022-08-14T12:22:34.166Z,53.80
2022-08-14T12:25:10.028Z,53.80
2022-08-14T12:27:41.962Z,53.70
2022-08-14T12:30:38.124Z,53.70
2022-08-14T12:33:25.469Z,53.50
2022-08-14T12:35:57.609Z,53.30
2022-08-14T12:38:45.937Z,53.10
2022-08-14T12:41:16.467Z,53.00
2022-08-14T12:43:51.438Z,52.80
2022-08-14T12:46:27.205Z,52.70
2022-08-14T12:48:57.650Z,52.60
2022-08-14T12:51:28.970Z,52.50
2022-08-14T12:54:00.421Z,52.30
2022-08-14T12:56:33.944Z,52.30
2022-08-14T12:59:05.650Z,52.30
2022-08-14T13:01:58.982Z,52.20
2022-08-14T13:04:23.244Z,51.90
2022-08-14T13:06:53.634Z,52.10
2022-08-14T13:09:27.769Z,52.00
2022-08-14T13:12:31.934Z,51.90
2022-08-14T13:14:57.953Z,51.80
2022-08-14T13:17:27.100Z,51.70
2022-08-14T13:19:58.519Z,51.40
2022-08-14T13:22:32.329Z,51.50
2022-08-14T13:25:05.159Z,51.20
2022-08-14T13:27:38.627Z,52.20
2022-08-14T13:30:10.728Z,51.60
2022-08-14T13:32:49.184Z,51.80
2022-08-14T13:35:23.521Z,51.80
2022-08-14T13:37:53.765Z,51.80
2022-08-14T13:40:26.638Z,51.80
2022-08-14T13:42:57.090Z,51.80
2022-08-14T13:45:33.963Z,51.40
2022-08-14T13:48:27.196Z,51.50
2022-08-14T13:51:05.315Z,51.40
2022-08-14T13:53:49.545Z,51.30
2022-08-14T13:56:36.474Z,51.40
2022-08-14T13:59:05.466Z,51.30
2022-08-14T14:01:42.845Z,51.30
2022-08-14T14:04:18.965Z,51.00
2022-08-14T14:06:49.264Z,51.10
2022-08-14T14:09:25.491Z,51.10
2022-08-14T14:11:55.806Z,51.30
2022-08-14T14:14:44.867Z,51.20
2022-08-14T14:17:14.989Z,51.20
2022-08-14T14:19:46.462Z,50.80
2022-08-14T14:22:35.298Z,51.00
2022-08-14T14:25:06.958Z,50.90
2022-08-14T14:27:40.931Z,50.30
2022-08-14T14:30:46.861Z,50.70
2022-08-14T14:33:02.157Z,50.60
2022-08-14T14:35:39.609Z,50.40
2022-08-14T14:38:08.604Z,50.30
2022-08-14T14:40:52.590Z,49.90
2022-08-14T14:43:26.186Z,49.60
2022-08-14T14:45:56.218Z,50.00
2022-08-14T14:48:31.966Z,50.10
2022-08-14T14:51:01.234Z,50.10
2022-08-14T14:53:32.970Z,49.70
2022-08-14T14:56:50.046Z,49.70
2022-08-14T14:58:58.737Z,49.40
2022-08-14T15:01:26.703Z,50.00
2022-08-14T15:03:56.429Z,49.00
2022-08-14T15:06:30.300Z,49.40
2022-08-14T15:09:00.018Z,49.50
2022-08-14T15:11:30.049Z,49.40
2022-08-14T15:13:58.760Z,49.20
2022-08-14T15:16:29.390Z,49.20
2022-08-14T15:18:57.133Z,49.30
2022-08-14T15:21:25.438Z,50.00
2022-08-14T15:23:55.773Z,49.30
2022-08-14T15:26:31.510Z,49.20
2022-08-14T15:29:06.145Z,49.10
2022-08-14T15:31:37.326Z,49.10
2022-08-14T15:34:44.656Z,48.90
2022-08-14T15:37:04.865Z,48.80
2022-08-14T15:39:33.632Z,48.60
2022-08-14T15:42:03.332Z,48.70
2022-08-14T15:44:34.504Z,48.90
2022-08-14T15:47:12.114Z,48.90
2022-08-14T15:49:39.934Z,48.80
2022-08-14T15:52:08.051Z,48.90
2022-08-14T15:54:38.554Z,48.70
2022-08-14T15:57:09.011Z,48.80
2022-08-14T15:59:57.357Z,48.80
2022-08-14T16:02:27.608Z,49.10
2022-08-14T16:04:55.746Z,48.60
2022-08-14T16:07:26.905Z,48.70
2022-08-14T16:10:18.293Z,48.90
2022-08-14T16:12:46.711Z,48.80
2022-08-14T16:15:20.974Z,48.70
2022-08-14T16:17:50.270Z,48.70
2022-08-14T16:20:41.640Z,48.90
2022-08-14T16:23:11.444Z,49.00
2022-08-14T16:25:41.363Z,49.10
2022-08-14T16:28:09.318Z,49.00
2022-08-14T16:30:40.538Z,49.10
2022-08-14T16:33:11.062Z,49.10
2022-08-14T16:38:48.566Z,49.20
2022-08-14T16:41:26.265Z,49.30
2022-08-14T16:44:01.606Z,49.40
2022-08-14T16:46:34.698Z,49.50
2022-08-14T16:49:04.273Z,49.50
2022-08-14T16:51:34.986Z,49.60
2022-08-14T16:54:34.515Z,49.70
2022-08-14T16:57:12.199Z,49.90
2022-08-14T16:59:52.396Z,49.90
2022-08-14T17:02:36.158Z,50.00
2022-08-14T17:05:18.421Z,50.10
2022-08-14T17:08:32.562Z,50.20
2022-08-14T17:11:11.041Z,50.30
2022-08-14T17:13:59.255Z,50.30
2022-08-14T17:16:32.959Z,50.30
2022-08-14T17:19:05.812Z,50.40
2022-08-14T17:21:41.767Z,50.40
2022-08-14T17:24:56.837Z,50.50
2022-08-14T17:27:03.976Z,50.60
2022-08-14T17:29:35.076Z,50.70
2022-08-14T17:32:30.100Z,51.30
2022-08-14T17:35:16.466Z,50.70
2022-08-14T17:37:48.452Z,50.80
2022-08-14T17:40:25.888Z,50.80
2022-08-14T17:43:02.358Z,50.80
2022-08-14T17:45:46.627Z,50.80
2022-08-14T17:49:10.485Z,50.90
2022-08-14T17:51:23.397Z,50.90
2022-08-14T17:54:02.522Z,51.10
2022-08-14T17:56:33.624Z,51.10
2022-08-14T17:59:05.308Z,51.20
2022-08-14T18:01:37.742Z,51.30
2022-08-14T18:04:24.938Z,51.40
2022-08-14T18:07:09.972Z,51.40
2022-08-14T18:09:57.293Z,51.50
2022-08-14T18:12:32.911Z,51.50
2022-08-14T18:15:16.861Z,51.70
2022-08-14T18:17:52.961Z,51.70
2022-08-14T18:21:40.164Z,51.80
2022-08-14T18:23:13.910Z,51.80
2022-08-14T18:25:49.191Z,51.90
2022-08-14T18:28:48.105Z,52.00
2022-08-14T18:31:44.221Z,52.00
2022-08-14T18:34:31.097Z,52.10
2022-08-14T18:37:16.535Z,52.10
2022-08-14T18:40:02.325Z,52.30
2022-08-14T18:42:44.142Z,52.40
2022-08-14T18:45:15.555Z,52.50
2022-08-14T18:50:48.755Z,52.60
2022-08-14T18:53:24.436Z,52.60
2022-08-14T18:56:00.068Z,52.90
2022-08-14T18:58:45.975Z,53.00
2022-08-14T19:01:24.390Z,53.00
2022-08-14T19:03:52.414Z,53.10
2022-08-14T19:06:20.586Z,53.20
2022-08-14T19:08:50.843Z,53.30
2022-08-14T19:11:50.306Z,53.30
2022-08-14T19:14:46.872Z,53.40
2022-08-14T19:18:13.813Z,53.50
2022-08-14T19:20:53.759Z,53.60
2022-08-14T19:23:42.397Z,53.70
2022-08-14T19:26:34.136Z,53.80
2022-08-14T19:29:36.036Z,54.00
2022-08-14T19:32:15.346Z,54.10
2022-08-14T19:34:52.389Z,54.10
2022-08-14T19:37:44.811Z,54.20
2022-08-14T19:40:19.497Z,54.30
2022-08-14T19:42:49.147Z,54.30
2022-08-14T19:45:18.743Z,54.50
2022-08-14T19:47:49.936Z,54.60
2022-08-14T19:50:37.689Z,54.70
2022-08-14T19:53:16.749Z,54.80
2022-08-14T19:55:58.814Z,54.90
2022-08-14T19:58:55.087Z,55.00
2022-08-14T20:01:37.066Z,55.10
2022-08-14T20:04:22.846Z,55.20
2022-08-14T20:06:57.494Z,55.30
2022-08-14T20:11:07.363Z,55.40
2022-08-14T20:12:29.022Z,55.60
2022-08-14T20:15:06.702Z,55.60
2022-08-14T20:17:40.162Z,55.70
2022-08-14T20:20:16.458Z,55.80
2022-08-14T20:23:11.192Z,56.00
2022-08-14T20:25:55.643Z,56.00
2022-08-14T20:28:31.776Z,56.20
2022-08-14T20:31:14.351Z,56.30
2022-08-14T20:34:08.021Z,56.40
2022-08-14T20:37:01.883Z,56.40
2022-08-14T20:39:29.674Z,56.50
2022-08-14T20:42:31.275Z,56.70
2022-08-14T20:45:23.951Z,56.80
2022-08-14T20:47:58.268Z,56.70
2022-08-14T20:50:30.169Z,57.00
2022-08-14T20:52:58.543Z,57.10
2022-08-14T20:55:30.315Z,57.10
2022-08-14T20:58:02.226Z,57.10
2022-08-14T21:00:52.362Z,57.20
2022-08-14T21:03:31.775Z,57.40
2022-08-14T21:06:02.532Z,57.40
2022-08-14T21:08:47.080Z,57.50
2022-08-14T21:11:18.810Z,57.50
2022-08-14T21:14:24.994Z,57.50
2022-08-14T21:16:37.889Z,57.60
2022-08-14T21:19:10.178Z,57.60
2022-08-14T21:21:46.207Z,57.80
2022-08-14T21:24:39.448Z,57.80
2022-08-14T21:27:20.023Z,57.80
2022-08-14T21:29:55.558Z,57.80
2022-08-14T21:32:34.489Z,58.00
2022-08-14T21:35:08.673Z,58.00
2022-08-14T21:37:45.023Z,58.10
2022-08-14T21:43:18.046Z,58.20
2022-08-14T21:45:53.069Z,58.20
2022-08-14T21:48:22.035Z,58.30
2022-08-14T21:51:55.078Z,58.30
2022-08-14T21:54:04.285Z,58.30
2022-08-14T21:56:38.988Z,58.50
2022-08-14T21:59:10.638Z,58.50
2022-08-14T22:02:00.078Z,58.60
2022-08-14T22:04:33.132Z,58.60
2022-08-14T22:07:05.378Z,58.70
2022-08-14T22:09:36.256Z,58.80
2022-08-14T22:12:07.191Z,58.80
2022-08-14T22:14:43.121Z,58.80
2022-08-14T22:17:17.080Z,58.80
2022-08-14T22:19:47.416Z,58.90
2022-08-14T22:22:26.355Z,58.80
2022-08-14T22:24:59.672Z,58.90
2022-08-14T22:27:29.644Z,59.10
2022-08-14T22:30:00.633Z,59.10
2022-08-14T22:32:55.848Z,59.10
2022-08-14T22:35:17.712Z,59.20
2022-08-14T22:37:47.004Z,59.30
2022-08-14T22:40:58.173Z,59.30
2022-08-14T22:43:24.132Z,59.30
2022-08-14T22:45:55.812Z,59.40
2022-08-14T22:48:23.982Z,59.50
2022-08-14T22:50:53.593Z,59.50
2022-08-14T22:53:23.366Z,59.60
2022-08-14T22:55:52.374Z,59.60
2022-08-14T22:58:31.557Z,59.60
2022-08-14T23:01:07.644Z,59.60
2022-08-14T23:03:42.201Z,59.70
2022-08-14T23:07:02.715Z,59.70
2022-08-14T23:09:35.206Z,59.80
2022-08-14T23:11:49.936Z,59.80
2022-08-14T23:14:23.709Z,59.90
2022-08-14T23:16:57.523Z,60.00
2022-08-14T23:19:34.669Z,59.90
2022-08-14T23:22:05.060Z,60.10
2022-08-14T23:24:36.055Z,60.20
2022-08-14T23:27:09.720Z,60.30
2022-08-14T23:29:56.052Z,60.30
2022-08-14T23:32:23.833Z,60.40
2022-08-14T23:34:54.269Z,60.50
2022-08-14T23:37:27.120Z,60.50
2022-08-14T23:39:56.868Z,60.40
2022-08-14T23:42:40.303Z,61.30
2022-08-14T23:45:09.913Z,60.60
2022-08-14T23:47:52.170Z,61.40
2022-08-14T23:50:33.826Z,60.70
2022-08-14T23:53:07.271Z,60.80
2022-08-14T23:55:37.105Z,60.90
2022-08-14T23:58:09.965Z,60.90
